createdAt,value
2023-07-12T00:01:04.002Z,20.80
2023-07-12T00:03:31.968Z,21.10
2023-07-12T00:05:59.880Z,20.80
2023-07-12T00:08:30.114Z,20.90
2023-07-12T00:11:00.231Z,21.00
2023-07-12T00:13:28.168Z,20.70
2023-07-12T00:15:56.653Z,20.70
2023-07-12T00:18:28.701Z,20.80
2023-07-12T00:20:56.670Z,20.80
2023-07-12T00:23:24.575Z,20.70
2023-07-12T00:25:52.758Z,20.80
2023-07-12T00:28:25.943Z,20.80
2023-07-12T00:30:56.292Z,21.10
2023-07-12T00:33:25.377Z,21.10
2023-07-12T00:35:53.587Z,20.70
2023-07-12T00:38:22.778Z,20.70
2023-07-12T00:41:10.900Z,20.50
2023-07-12T00:43:42.398Z,20.30
2023-07-12T00:46:17.500Z,20.30
2023-07-12T00:48:48.281Z,20.60
2023-07-12T00:51:39.844Z,20.10
2023-07-12T00:54:13.328Z,19.90
2023-07-12T00:56:41.931Z,20.10
2023-07-12T00:59:15.132Z,20.20
2023-07-12T01:01:43.560Z,19.90
2023-07-12T01:04:16.370Z,20.30
2023-07-12T01:06:44.602Z,20.00
2023-07-12T01:09:15.773Z,19.80
2023-07-12T01:11:44.208Z,19.80
2023-07-12T01:14:15.627Z,19.80
2023-07-12T01:16:48.111Z,19.60
2023-07-12T01:19:16.263Z,19.70
2023-07-12T01:21:48.191Z,19.70
2023-07-12T01:24:17.210Z,19.50
2023-07-12T01:26:47.994Z,19.70
2023-07-12T01:29:16.086Z,19.40
2023-07-12T01:31:46.810Z,19.60
2023-07-12T01:34:16.016Z,19.60
2023-07-12T01:36:46.061Z,20.30
2023-07-12T01:39:14.368Z,19.80
2023-07-12T01:41:42.292Z,19.40
2023-07-12T01:44:10.362Z,19.70
2023-07-12T01:46:38.291Z,19.60
2023-07-12T01:49:06.532Z,19.60
2023-07-12T01:51:34.977Z,19.10
2023-07-12T01:54:04.538Z,19.00
2023-07-12T01:56:32.473Z,19.20
2023-07-12T01:59:00.367Z,19.10
2023-07-12T02:01:28.410Z,19.50
2023-07-12T02:03:56.428Z,19.40
2023-07-12T02:06:24.445Z,19.00
2023-07-12T02:08:52.375Z,19.00
2023-07-12T02:11:21.690Z,19.50
2023-07-12T02:13:49.630Z,19.30
2023-07-12T02:16:17.595Z,19.60
2023-07-12T02:18:53.775Z,19.30
2023-07-12T02:21:29.969Z,19.00
2023-07-12T02:24:06.962Z,19.00
2023-07-12T02:26:37.166Z,19.50
2023-07-12T02:29:05.061Z,19.00
2023-07-12T02:31:33.788Z,20.00
2023-07-12T02:34:01.977Z,19.00
2023-07-12T02:36:29.971Z,19.10
2023-07-12T02:38:57.937Z,18.90
2023-07-12T02:41:25.923Z,18.90
2023-07-12T02:43:55.214Z,18.90
2023-07-12T02:46:23.200Z,18.80
2023-07-12T02:48:51.130Z,19.00
2023-07-12T02:51:19.016Z,18.80
2023-07-12T02:53:46.909Z,18.80
2023-07-12T02:56:14.811Z,18.80
2023-07-12T02:58:42.717Z,18.80
2023-07-12T03:01:12.780Z,18.60
2023-07-12T03:03:40.903Z,18.80
2023-07-12T03:06:11.117Z,19.30
2023-07-12T03:08:39.515Z,19.20
2023-07-12T03:11:09.769Z,18.80
2023-07-12T03:13:38.092Z,18.70
2023-07-12T03:16:07.036Z,18.90
2023-07-12T03:18:36.887Z,18.90
2023-07-12T03:21:06.988Z,19.30
2023-07-12T03:23:36.967Z,18.90
2023-07-12T03:26:05.335Z,18.90
2023-07-12T03:28:33.445Z,18.90
2023-07-12T03:31:02.989Z,18.90
2023-07-12T03:33:31.479Z,19.00
2023-07-12T03:36:01.725Z,19.00
2023-07-12T03:38:31.929Z,18.90
2023-07-12T03:41:02.258Z,19.00
2023-07-12T03:43:30.319Z,18.90
2023-07-12T03:45:58.638Z,19.00
2023-07-12T03:48:27.373Z,18.90
2023-07-12T03:50:56.441Z,18.90
2023-07-12T03:53:27.380Z,19.00
2023-07-12T03:55:59.488Z,18.90
2023-07-12T03:58:30.871Z,18.90
2023-07-12T04:01:02.698Z,19.00
2023-07-12T04:03:30.817Z,18.90
2023-07-12T04:05:58.796Z,18.80
2023-07-12T04:08:28.177Z,18.80
2023-07-12T04:10:57.126Z,18.80
2023-07-12T04:13:26.860Z,18.90
2023-07-12T04:15:56.889Z,18.80
2023-07-12T04:18:26.085Z,18.80
2023-07-12T04:20:54.866Z,18.90
2023-07-12T04:23:23.369Z,18.80
2023-07-12T04:26:03.610Z,18.90
2023-07-12T04:33:32.637Z,18.80
2023-07-12T04:36:05.002Z,18.70
2023-07-12T04:38:32.933Z,18.80
2023-07-12T04:41:02.600Z,18.70
2023-07-12T04:43:31.371Z,18.80
2023-07-12T04:45:59.740Z,18.80
2023-07-12T04:48:27.743Z,18.80
2023-07-12T04:50:56.765Z,18.90
2023-07-12T04:53:25.472Z,18.80
2023-07-12T04:55:53.701Z,18.90
2023-07-12T04:58:23.165Z,18.80
2023-07-12T05:00:51.135Z,18.80
2023-07-12T05:03:19.325Z,18.80
2023-07-12T05:05:47.464Z,18.70
2023-07-12T05:08:17.177Z,18.70
2023-07-12T05:10:45.169Z,18.60
2023-07-12T05:13:13.536Z,18.90
2023-07-12T05:15:43.114Z,18.70
2023-07-12T05:18:11.137Z,18.50
2023-07-12T05:20:40.152Z,18.70
2023-07-12T05:23:08.153Z,18.80
2023-07-12T05:25:36.236Z,19.40
2023-07-12T05:28:04.441Z,17.70
2023-07-12T05:30:32.833Z,19.10
2023-07-12T05:33:02.203Z,19.40
2023-07-12T05:35:30.170Z,19.50
2023-07-12T05:37:58.180Z,19.60
2023-07-12T05:40:26.608Z,19.70
2023-07-12T05:42:54.464Z,20.00
2023-07-12T05:45:22.556Z,20.10
2023-07-12T05:47:50.552Z,20.40
2023-07-12T05:50:21.965Z,20.30
2023-07-12T05:52:50.705Z,20.60
2023-07-12T05:55:20.165Z,20.90
2023-07-12T05:57:49.168Z,20.90
2023-07-12T06:00:18.781Z,21.10
2023-07-12T06:02:46.970Z,21.10
2023-07-12T06:05:14.879Z,21.20
2023-07-12T06:07:44.225Z,20.60
2023-07-12T06:10:12.919Z,21.00
2023-07-12T06:12:41.021Z,20.50
2023-07-12T06:15:10.429Z,20.50
2023-07-12T06:17:38.930Z,21.20
2023-07-12T06:20:08.876Z,21.40
2023-07-12T06:22:38.118Z,21.30
2023-07-12T06:25:08.570Z,21.20
2023-07-12T06:27:36.467Z,21.20
2023-07-12T06:30:04.713Z,21.20
2023-07-12T06:32:32.630Z,21.20
2023-07-12T06:35:00.586Z,21.80
2023-07-12T06:37:29.283Z,21.50
2023-07-12T06:39:57.155Z,22.00
2023-07-12T06:42:27.872Z,22.60
2023-07-12T06:44:57.025Z,23.00
2023-07-12T06:47:25.013Z,23.30
2023-07-12T06:49:54.138Z,23.40
2023-07-12T06:52:22.534Z,23.60
2023-07-12T06:54:50.412Z,23.70
2023-07-12T06:57:18.336Z,24.10
2023-07-12T06:59:47.620Z,24.30
2023-07-12T07:02:15.849Z,24.50
2023-07-12T07:04:44.060Z,24.50
2023-07-12T07:07:11.983Z,24.60
2023-07-12T07:09:40.328Z,24.50
2023-07-12T07:12:09.504Z,24.00
2023-07-12T07:14:37.360Z,23.60
2023-07-12T07:17:06.775Z,23.30
2023-07-12T07:19:34.676Z,23.00
2023-07-12T07:22:02.655Z,22.70
2023-07-12T07:24:30.585Z,22.50
2023-07-12T07:26:58.529Z,22.00
2023-07-12T07:29:26.421Z,21.90
2023-07-12T07:31:54.416Z,21.60
2023-07-12T07:34:23.827Z,21.40
2023-07-12T07:36:52.343Z,21.60
2023-07-12T07:39:20.309Z,21.10
2023-07-12T07:41:48.251Z,21.20
2023-07-12T07:44:16.129Z,20.80
2023-07-12T07:46:44.158Z,21.00
2023-07-12T07:49:12.074Z,20.80
2023-07-12T07:51:41.318Z,21.00
2023-07-12T07:54:09.241Z,21.40
2023-07-12T07:56:37.189Z,20.70
2023-07-12T07:59:05.053Z,20.60
2023-07-12T08:01:32.971Z,20.90
2023-07-12T08:04:01.230Z,20.80
2023-07-12T08:06:29.317Z,20.60
2023-07-12T08:08:58.592Z,20.40
2023-07-12T08:11:26.687Z,20.40
2023-07-12T08:13:54.616Z,20.20
2023-07-12T08:16:23.090Z,20.20
2023-07-12T08:18:51.044Z,20.20
2023-07-12T08:21:19.096Z,20.40
2023-07-12T08:23:47.001Z,20.60
2023-07-12T08:26:18.768Z,20.80
2023-07-12T08:28:46.653Z,21.10
2023-07-12T08:31:14.758Z,21.50
2023-07-12T08:33:45.233Z,21.80
2023-07-12T08:36:13.311Z,22.20
2023-07-12T08:38:41.156Z,22.60
2023-07-12T08:41:15.391Z,22.50
2023-07-12T08:43:45.110Z,22.70
2023-07-12T08:46:18.175Z,22.80
2023-07-12T08:48:46.411Z,23.20
2023-07-12T08:51:17.855Z,23.10
2023-07-12T08:53:47.079Z,23.40
2023-07-12T08:56:16.949Z,23.20
2023-07-12T08:58:47.460Z,23.10
2023-07-12T09:01:19.168Z,23.20
2023-07-12T09:03:47.317Z,23.30
2023-07-12T09:06:16.833Z,23.40
2023-07-12T09:08:48.435Z,23.90
2023-07-12T09:11:20.847Z,24.20
2023-07-12T09:13:51.494Z,23.90
2023-07-12T09:16:26.036Z,23.80
2023-07-12T09:18:56.305Z,23.80
2023-07-12T09:21:27.103Z,24.00
2023-07-12T09:23:56.655Z,24.10
2023-07-12T09:26:27.084Z,23.90
2023-07-12T09:29:00.128Z,23.80
2023-07-12T09:31:32.118Z,23.50
2023-07-12T09:34:06.265Z,23.70
2023-07-12T09:36:36.401Z,24.20
2023-07-12T09:39:06.923Z,24.50
2023-07-12T09:41:34.858Z,25.00
2023-07-12T09:44:04.310Z,25.40
2023-07-12T09:46:38.359Z,26.00
2023-07-12T09:49:12.132Z,26.10
2023-07-12T09:51:49.075Z,26.20
2023-07-12T09:54:28.441Z,26.30
2023-07-12T09:57:01.191Z,26.60
2023-07-12T09:59:38.956Z,26.50
2023-07-12T10:02:20.240Z,26.80
2023-07-12T10:04:52.244Z,27.00
2023-07-12T10:07:34.089Z,26.90
2023-07-12T10:10:02.113Z,26.90
2023-07-12T10:12:36.039Z,27.00
2023-07-12T10:15:05.804Z,27.20
2023-07-12T10:17:37.037Z,27.00
2023-07-12T10:20:06.028Z,27.20
2023-07-12T10:22:39.818Z,27.40
2023-07-12T10:25:19.424Z,27.00
2023-07-12T10:27:54.617Z,26.70
2023-07-12T10:30:27.098Z,26.40
2023-07-12T10:33:00.683Z,26.70
2023-07-12T10:35:39.615Z,26.80
2023-07-12T10:38:16.330Z,26.90
2023-07-12T10:40:50.864Z,26.60
2023-07-12T10:43:24.188Z,26.00
2023-07-12T10:45:56.501Z,25.70
2023-07-12T10:48:28.126Z,25.90
2023-07-12T10:50:58.094Z,26.00
2023-07-12T10:53:36.164Z,26.30
2023-07-12T10:56:14.329Z,26.10
2023-07-12T10:58:51.200Z,26.20
2023-07-12T11:01:50.112Z,26.30
2023-07-12T11:04:25.816Z,26.60
2023-07-12T11:06:58.189Z,26.80
2023-07-12T11:09:27.528Z,27.10
2023-07-12T11:12:06.376Z,27.30
2023-07-12T11:14:51.576Z,27.50
2023-07-12T11:17:23.203Z,27.30
2023-07-12T11:20:11.019Z,27.20
2023-07-12T11:22:58.726Z,27.10
2023-07-12T11:25:58.856Z,27.30
2023-07-12T11:28:41.120Z,27.50
2023-07-12T11:31:32.812Z,27.60
2023-07-12T11:34:12.305Z,27.70
2023-07-12T11:36:40.965Z,27.60
2023-07-12T11:39:16.194Z,27.60
2023-07-12T11:41:54.811Z,27.80
2023-07-12T11:44:22.712Z,28.10
2023-07-12T11:46:52.611Z,28.30
2023-07-12T11:49:27.619Z,28.70
2023-07-12T11:51:57.837Z,28.80
2023-07-12T11:54:27.484Z,28.80
2023-07-12T11:57:00.290Z,28.50
2023-07-12T11:59:31.997Z,28.20
2023-07-12T12:02:00.411Z,28.20
2023-07-12T12:04:31.920Z,28.50
2023-07-12T12:07:03.741Z,28.30
2023-07-12T12:09:34.162Z,27.80
2023-07-12T12:12:03.527Z,27.30
2023-07-12T12:14:33.401Z,26.80
2023-07-12T12:17:08.598Z,26.70
2023-07-12T12:19:38.198Z,27.00
2023-07-12T12:22:24.623Z,27.00
2023-07-12T12:24:56.598Z,27.10
2023-07-12T12:27:31.175Z,27.50
2023-07-12T12:30:09.570Z,27.60
2023-07-12T12:32:41.013Z,27.70
2023-07-12T12:35:14.533Z,27.80
2023-07-12T12:37:42.505Z,28.00
2023-07-12T12:40:19.701Z,27.80
2023-07-12T12:42:59.433Z,28.00
2023-07-12T12:45:31.079Z,28.00
2023-07-12T12:53:32.349Z,27.70
2023-07-12T13:02:41.300Z,27.70
2023-07-12T13:06:36.685Z,28.00
2023-07-12T13:12:04.491Z,28.10
2023-07-12T13:19:30.768Z,28.60
2023-07-12T13:22:00.860Z,28.60
2023-07-12T13:24:28.935Z,28.30
2023-07-12T13:26:56.960Z,28.20
2023-07-12T13:29:24.828Z,28.40
2023-07-12T13:31:52.749Z,28.70
2023-07-12T13:34:22.400Z,28.40
2023-07-12T13:36:52.998Z,28.20
2023-07-12T13:49:41.513Z,27.70
2023-07-12T13:52:13.011Z,28.00
2023-07-12T13:54:42.580Z,28.20
2023-07-12T13:57:13.380Z,28.30
2023-07-12T13:59:43.352Z,28.20
2023-07-12T14:04:54.397Z,28.60
2023-07-12T14:10:15.472Z,28.50
2023-07-12T14:12:44.678Z,28.50
2023-07-12T14:15:23.198Z,28.60
2023-07-12T14:17:51.604Z,28.60
2023-07-12T14:20:21.557Z,28.70
2023-07-12T14:22:49.589Z,28.70
2023-07-12T14:25:21.752Z,28.70
2023-07-12T14:27:50.460Z,28.40
2023-07-12T14:32:52.308Z,28.30
2023-07-12T14:35:23.427Z,28.30
2023-07-12T14:37:51.505Z,28.20
2023-07-12T14:40:21.789Z,28.10
2023-07-12T14:42:49.810Z,28.00
2023-07-12T14:45:20.118Z,27.90
2023-07-12T14:47:48.002Z,27.90
2023-07-12T14:50:17.806Z,28.00
2023-07-12T14:52:47.627Z,28.00
2023-07-12T14:55:18.670Z,28.00
2023-07-12T15:00:20.666Z,27.80
2023-07-12T15:02:52.849Z,27.90
2023-07-12T15:05:21.660Z,27.80
2023-07-12T15:07:49.596Z,27.60
2023-07-12T15:10:19.479Z,27.50
2023-07-12T15:12:51.674Z,27.30
2023-07-12T15:15:22.245Z,27.20
2023-07-12T15:17:54.281Z,27.10
2023-07-12T15:20:24.968Z,26.80
2023-07-12T15:22:56.093Z,26.60
2023-07-12T15:25:26.058Z,26.60
2023-07-12T15:27:57.351Z,26.70
2023-07-12T15:30:27.315Z,26.90
2023-07-12T15:32:57.232Z,27.00
2023-07-12T15:35:28.552Z,26.90
2023-07-12T15:37:58.831Z,26.50
2023-07-12T15:40:52.296Z,26.30
2023-07-12T15:43:23.404Z,26.20
2023-07-12T15:45:51.364Z,26.20
2023-07-12T15:48:21.323Z,26.10
2023-07-12T15:50:51.835Z,26.10
2023-07-12T15:53:21.326Z,26.00
2023-07-12T15:55:50.355Z,26.00
2023-07-12T15:58:23.858Z,25.90
2023-07-12T16:00:55.046Z,26.00
2023-07-12T16:03:25.327Z,25.90
2023-07-12T16:05:54.692Z,25.90
2023-07-12T16:08:24.264Z,25.90
2023-07-12T16:10:54.584Z,25.90
2023-07-12T16:13:26.026Z,26.00
2023-07-12T16:15:54.324Z,26.10
2023-07-12T16:18:24.408Z,26.10
2023-07-12T16:20:54.458Z,26.10
2023-07-12T16:23:28.532Z,26.00
2023-07-12T16:25:56.447Z,25.90
2023-07-12T16:28:25.665Z,25.60
2023-07-12T16:30:54.030Z,25.40
2023-07-12T16:33:26.061Z,25.40
2023-07-12T16:35:55.868Z,25.30
2023-07-12T16:38:26.714Z,25.40
2023-07-12T16:40:59.565Z,25.20
2023-07-12T16:43:30.851Z,25.10
2023-07-12T16:45:58.784Z,24.90
2023-07-12T16:48:26.721Z,24.90
2023-07-12T16:50:54.612Z,24.70
2023-07-12T16:53:31.929Z,24.30
2023-07-12T16:56:00.067Z,24.60
2023-07-12T16:58:31.387Z,24.20
2023-07-12T17:01:01.603Z,24.40
2023-07-12T17:03:34.282Z,23.70
2023-07-12T17:06:02.631Z,23.70
2023-07-12T17:08:30.724Z,23.50
2023-07-12T17:11:00.457Z,23.70
2023-07-12T17:13:29.708Z,23.80
2023-07-12T17:15:57.646Z,23.60
2023-07-12T17:18:25.568Z,23.60
2023-07-12T17:20:57.078Z,23.70
2023-07-12T17:23:27.582Z,23.60
2023-07-12T17:25:57.776Z,23.50
2023-07-12T17:28:30.843Z,23.60
2023-07-12T17:31:03.203Z,23.40
2023-07-12T17:33:31.085Z,23.40
2023-07-12T17:35:58.980Z,23.80
2023-07-12T17:38:28.504Z,23.40
2023-07-12T17:40:57.695Z,23.60
2023-07-12T17:43:27.664Z,23.30
2023-07-12T17:45:56.065Z,23.50
2023-07-12T17:48:25.760Z,23.20
2023-07-12T17:50:58.366Z,23.00
2023-07-12T17:53:26.716Z,23.30
2023-07-12T17:55:56.324Z,23.30
2023-07-12T17:58:26.521Z,22.90
2023-07-12T18:00:56.539Z,22.80
2023-07-12T18:03:28.586Z,22.90
2023-07-12T18:05:56.643Z,23.10
2023-07-12T18:08:25.346Z,23.10
2023-07-12T18:10:58.225Z,22.40
2023-07-12T18:13:28.596Z,22.50
2023-07-12T18:15:56.716Z,22.20
2023-07-12T18:18:26.276Z,21.80
2023-07-12T18:20:54.376Z,21.60
2023-07-12T18:23:27.355Z,21.70
2023-07-12T18:25:55.307Z,21.80
2023-07-12T18:28:23.684Z,21.40
2023-07-12T18:30:54.712Z,22.00
2023-07-12T18:33:25.546Z,21.80
2023-07-12T18:35:56.099Z,21.80
2023-07-12T18:38:24.616Z,21.70
2023-07-12T18:40:52.689Z,21.70
2023-07-12T18:43:22.923Z,21.90
2023-07-12T18:45:51.055Z,21.30
2023-07-12T18:48:19.408Z,21.50
2023-07-12T18:50:49.287Z,22.80
2023-07-12T18:53:18.899Z,21.40
2023-07-12T18:55:47.822Z,21.50
2023-07-12T18:58:16.858Z,21.40
2023-07-12T19:00:45.631Z,21.10
2023-07-12T19:03:26.626Z,21.30
2023-07-12T19:05:56.049Z,21.10
2023-07-12T19:08:25.291Z,21.00
2023-07-12T19:10:53.595Z,20.80
2023-07-12T19:13:22.187Z,21.20
2023-07-12T19:15:50.248Z,19.90
2023-07-12T19:18:18.359Z,20.00
2023-07-12T19:20:46.430Z,20.70
2023-07-12T19:23:18.415Z,19.60
2023-07-12T19:25:46.433Z,19.90
2023-07-12T19:28:15.252Z,21.50
2023-07-12T19:30:43.272Z,21.20
2023-07-12T19:33:16.373Z,19.80
2023-07-12T19:35:44.268Z,20.80
2023-07-12T19:38:12.217Z,20.90
2023-07-12T19:40:41.915Z,19.70
2023-07-12T19:43:10.488Z,21.20
2023-07-12T19:45:39.089Z,20.90
2023-07-12T19:48:07.709Z,21.10
2023-07-12T19:50:36.267Z,19.50
2023-07-12T19:53:20.215Z,20.20
2023-07-12T19:55:49.672Z,20.00
2023-07-12T19:58:17.666Z,19.90
2023-07-12T20:00:48.329Z,19.20
2023-07-12T20:03:17.921Z,19.10
2023-07-12T20:05:47.866Z,19.80
2023-07-12T20:08:15.788Z,19.00
2023-07-12T20:10:43.725Z,19.00
2023-07-12T20:13:13.163Z,18.90
2023-07-12T20:15:41.031Z,18.80
2023-07-12T20:18:10.083Z,18.80
2023-07-12T20:20:40.735Z,18.70
2023-07-12T20:23:10.512Z,19.50
2023-07-12T20:25:38.392Z,18.70
2023-07-12T20:28:07.097Z,18.60
2023-07-12T20:30:39.513Z,18.80
2023-07-12T20:33:07.521Z,18.50
2023-07-12T20:35:35.521Z,18.50
2023-07-12T20:38:05.158Z,18.50
2023-07-12T20:40:33.377Z,18.50
2023-07-12T20:43:01.401Z,18.40
2023-07-12T20:45:29.584Z,18.40
2023-07-12T20:47:58.980Z,18.40
2023-07-12T20:50:27.258Z,19.10
2023-07-12T20:52:56.606Z,19.30
2023-07-12T20:55:25.730Z,18.30
2023-07-12T20:57:54.231Z,18.30
2023-07-12T21:03:10.114Z,18.30
2023-07-12T21:05:38.412Z,16.50
2023-07-12T21:08:06.558Z,17.60
2023-07-12T21:10:34.653Z,18.20
2023-07-12T21:13:02.812Z,18.20
2023-07-12T21:15:32.379Z,18.20
2023-07-12T21:18:00.390Z,18.30
2023-07-12T21:20:30.154Z,18.10
2023-07-12T21:22:58.205Z,18.10
2023-07-12T21:25:26.319Z,17.90
2023-07-12T21:27:54.316Z,18.30
2023-07-12T21:30:22.578Z,17.80
2023-07-12T21:32:50.696Z,18.00
2023-07-12T21:35:18.960Z,17.90
2023-07-12T21:37:48.428Z,18.00
2023-07-12T21:40:17.304Z,17.90
2023-07-12T21:42:45.559Z,17.80
2023-07-12T21:45:13.636Z,17.60
2023-07-12T21:47:41.607Z,17.70
2023-07-12T21:50:10.841Z,17.70
2023-07-12T21:52:38.897Z,17.70
2023-07-12T21:55:08.650Z,17.60
2023-07-12T21:57:36.730Z,17.50
2023-07-12T22:00:09.429Z,17.40
2023-07-12T22:02:37.453Z,17.40
2023-07-12T22:05:07.213Z,17.30
2023-07-12T22:07:35.326Z,17.20
2023-07-12T22:10:04.333Z,17.10
2023-07-12T22:12:33.760Z,17.00
2023-07-12T22:15:01.769Z,17.00
2023-07-12T22:17:29.781Z,17.00
2023-07-12T22:19:57.759Z,17.20
2023-07-12T22:22:25.741Z,17.20
2023-07-12T22:24:53.777Z,16.60
2023-07-12T22:27:22.035Z,17.40
2023-07-12T22:29:56.765Z,16.80
2023-07-12T22:32:24.987Z,16.60
2023-07-12T22:34:53.073Z,17.40
2023-07-12T22:37:21.701Z,16.50
2023-07-12T22:39:49.776Z,17.20
2023-07-12T22:42:17.922Z,16.90
2023-07-12T22:44:45.882Z,15.70
2023-07-12T22:47:15.323Z,16.90
2023-07-12T22:49:43.470Z,16.60
2023-07-12T22:52:11.977Z,16.10
2023-07-12T22:54:39.912Z,16.10
2023-07-12T22:57:08.412Z,16.00
2023-07-12T22:59:36.386Z,16.00
2023-07-12T23:02:04.727Z,15.90
2023-07-12T23:04:35.332Z,15.80
2023-07-12T23:07:03.798Z,15.70
2023-07-12T23:09:31.802Z,15.70
2023-07-12T23:12:08.213Z,15.60
2023-07-12T23:14:38.121Z,15.50
2023-07-12T23:17:08.590Z,15.50
2023-07-12T23:19:39.561Z,15.00
2023-07-12T23:22:13.579Z,15.40
2023-07-12T23:54:44.371Z,14.80
2023-07-12T23:57:12.348Z,14.80
2023-07-12T23:59:40.252Z,14.80
